Time;durP1;ratioP1;P1;durP2;ratioP2;P2;SDS_P1;SDS_P2;PMS_P1;PMS_P2;Temp;Humidity;BMP_temperature;BMP_pressure;BME280_temperature;BME280_humidity;BME280_pressure;Samples;Min_cycle;Max_cycle;Signal;HPM_P1;HPM_P2
2022/09/27 00:00:29;;;;;;;28.35;16.80;;;;;;;9.19;87.80;99077.81;1733244;82;21088;-75
2022/09/27 00:02:57;;;;;;;24.80;17.02;;;;;;;9.17;87.83;99076.70;1749139;80;21016;-75
2022/09/27 00:05:23;;;;;;;25.85;17.65;;;;;;;9.18;87.84;99073.53;1749331;81;21017;-75
2022/09/27 00:07:49;;;;;;;23.92;17.57;;;;;;;9.17;87.87;99078.02;1741745;80;21139;-75
2022/09/27 00:10:15;;;;;;;23.92;17.07;;;;;;;9.16;87.90;99069.72;1747434;81;21021;-75
2022/09/27 00:12:41;;;;;;;25.15;17.25;;;;;;;9.12;87.91;99061.81;1747467;81;21075;-75
2022/09/27 00:15:12;;;;;;;22.15;15.63;;;;;;;9.11;87.94;99055.37;1747801;80;21004;-75
2022/09/27 00:17:38;;;;;;;20.77;15.10;;;;;;;9.11;87.98;99051.38;1748086;80;21159;-75
2022/09/27 00:20:05;;;;;;;20.12;15.13;;;;;;;9.11;88.00;99057.53;1756736;80;21098;-75
2022/09/27 00:22:31;;;;;;;21.87;14.98;;;;;;;9.10;88.00;99051.06;1749167;80;21037;-75
2022/09/27 00:24:57;;;;;;;20.45;14.85;;;;;;;9.09;88.04;99055.55;1732460;80;20988;-75
2022/09/27 00:27:25;;;;;;;23.20;15.20;;;;;;;9.08;88.07;99044.59;1749366;80;21092;-74
2022/09/27 00:29:51;;;;;;;23.52;15.00;;;;;;;9.07;88.09;99048.80;1733033;80;21640;-75
2022/09/27 00:32:17;;;;;;;20.97;16.20;;;;;;;9.05;88.12;99048.97;1740842;80;21954;-74
2022/09/27 00:34:43;;;;;;;19.75;14.13;;;;;;;9.05;88.12;99050.30;1741346;80;21029;-74
2022/09/27 00:37:10;;;;;;;21.52;15.68;;;;;;;9.05;88.14;99043.66;1719806;80;21542;-74
2022/09/27 00:39:39;;;;;;;20.80;14.53;;;;;;;9.08;88.17;99045.92;1745531;80;21956;-74
2022/09/27 00:42:09;;;;;;;22.35;14.55;;;;;;;9.11;88.21;99037.58;1758085;78;21056;-74
2022/09/27 00:44:42;;;;;;;;;;;;;;;9.14;88.21;99031.88;1717505;80;21150;-75
2022/09/27 00:47:36;;;;;;;24.40;16.57;;;;;;;9.17;88.26;99028.83;1747865;80;20453;-75
2022/09/27 00:50:14;;;;;;;23.83;16.48;;;;;;;9.20;88.28;99036.41;1731878;80;21588;-74
2022/09/27 00:53:04;;;;;;;25.37;17.80;;;;;;;9.24;88.31;99031.02;1714844;82;21072;-74
2022/09/27 00:55:34;;;;;;;;;;;;;;;9.25;88.32;99029.19;1708241;82;22231;-74
2022/09/27 00:58:00;;;;;;;22.82;16.50;;;;;;;9.27;88.35;99024.48;1730472;81;21007;-74
2022/09/27 01:00:26;;;;;;;23.20;15.60;;;;;;;9.27;88.36;99017.32;1713667;82;20992;-74
2022/09/27 01:02:53;;;;;;;20.40;15.93;;;;;;;9.28;88.39;99014.98;1733987;82;21012;-74
2022/09/27 01:05:21;;;;;;;18.25;14.85;;;;;;;9.31;88.41;99011.93;1706715;81;21499;-74
2022/09/27 01:07:48;;;;;;;22.93;15.00;;;;;;;9.32;88.42;99002.91;1718009;82;21363;-75
2022/09/27 01:10:14;;;;;;;21.20;15.38;;;;;;;9.35;88.42;99000.39;1728440;81;21145;-74
2022/09/27 01:13:00;;;;;;;18.32;14.23;;;;;;;9.38;88.45;98999.48;1729004;82;21040;-75
2022/09/27 01:15:48;;;;;;;18.73;13.60;;;;;;;9.40;88.45;98996.11;1709935;82;21559;-75
2022/09/27 01:18:29;;;;;;;19.23;13.43;;;;;;;9.42;88.47;98990.09;1733572;81;21017;-75
2022/09/27 01:21:27;;;;;;;19.45;13.93;;;;;;;9.45;88.48;98984.38;1725798;81;21100;-75
2022/09/27 01:24:04;;;;;;;19.27;14.05;;;;;;;9.49;88.49;98980.30;1726154;82;21888;-75
2022/09/27 01:27:14;;;;;;;19.85;14.18;;;;;;;9.52;88.50;98981.23;1736697;81;21200;-74
2022/09/27 01:30:23;;;;;;;17.85;12.63;;;;;;;9.54;88.54;98972.53;1714899;82;21037;-75
2022/09/27 01:33:06;;;;;;;19.20;13.62;;;;;;;9.58;88.53;98969.47;1723908;83;20993;-75
2022/09/27 01:35:44;;;;;;;16.23;12.33;;;;;;;9.61;88.55;98964.58;1722763;81;21055;-75
2022/09/27 01:38:24;;;;;;;17.27;12.50;;;;;;;9.62;88.55;98960.08;1730232;81;21927;-75
2022/09/27 01:41:11;;;;;;;16.05;12.20;;;;;;;9.63;88.53;98947.09;1727642;81;21475;-75
2022/09/27 01:43:43;;;;;;;19.40;12.63;;;;;;;9.63;88.53;98946.58;1731390;81;21434;-75
2022/09/27 01:46:20;;;;;;;16.12;12.47;;;;;;;9.65;88.52;98946.36;1745766;80;20977;-75
2022/09/27 01:48:47;;;;;;;14.80;12.15;;;;;;;9.65;88.52;98946.36;1731034;82;21012;-75
2022/09/27 01:51:22;;;;;;;14.63;11.33;;;;;;;9.64;88.52;98943.41;1750277;80;21148;-75
2022/09/27 01:53:52;;;;;;;18.52;12.55;;;;;;;9.62;88.54;98936.95;1741253;80;20994;-75
2022/09/27 01:56:23;;;;;;;17.23;12.07;;;;;;;9.60;88.50;98927.53;1751986;80;20961;-75
2022/09/27 01:58:54;;;;;;;18.35;12.10;;;;;;;9.57;88.50;98926.06;1734877;80;21473;-75
2022/09/27 02:01:21;;;;;;;19.40;12.47;;;;;;;9.54;88.49;98924.63;1751485;80;20997;-75
2022/09/27 02:03:49;;;;;;;17.55;12.70;;;;;;;9.51;88.50;98921.05;1745067;80;21139;-75
2022/09/27 02:06:22;;;;;;;26.15;12.55;;;;;;;9.48;88.52;98912.64;1739182;80;21025;-75
2022/09/27 02:09:13;;;;;;;16.75;12.18;;;;;;;9.42;88.50;98910.78;1742985;80;20956;-75
2022/09/27 02:11:44;;;;;;;16.12;11.60;;;;;;;9.37;88.48;98903.39;1738626;80;21493;-75
2022/09/27 02:14:29;;;;;;;17.30;12.10;;;;;;;9.35;88.47;98900.62;1746703;80;21045;-75
2022/09/27 02:16:59;;;;;;;17.25;12.03;;;;;;;9.33;88.47;98894.66;1737820;80;21162;-75
2022/09/27 02:19:55;;;;;;;40.38;14.78;;;;;;;9.30;88.50;98893.73;1734558;80;23673;-75
2022/09/27 02:22:41;;;;;;;16.97;11.12;;;;;;;9.28;88.49;98893.13;1740776;80;21086;-75
2022/09/27 02:25:30;;;;;;;14.20;11.55;;;;;;;9.25;88.49;98898.34;1747432;80;21020;-75
2022/09/27 02:28:25;;;;;;;16.05;11.35;;;;;;;9.22;88.48;98893.39;1740842;80;21036;-75
2022/09/27 02:30:51;;;;;;;15.83;11.68;;;;;;;9.17;88.48;98895.84;1740573;80;21798;-75
2022/09/27 02:33:19;;;;;;;15.68;11.78;;;;;;;9.13;88.51;98886.61;1749009;80;21080;-75
2022/09/27 02:35:50;;;;;;;13.78;11.40;;;;;;;9.11;88.49;98879.86;1746291;80;21591;-75
2022/09/27 02:38:19;;;;;;;14.60;10.90;;;;;;;9.09;88.50;98880.04;1671251;83;21058;-76
2022/09/27 02:40:47;;;;;;;15.30;11.68;;;;;;;9.07;88.48;98874.11;1696441;83;21533;-75
2022/09/27 02:43:16;;;;;;;14.98;11.73;;;;;;;9.07;88.49;98871.45;1740788;79;21642;-75
2022/09/27 02:46:25;;;;;;;15.68;11.85;;;;;;;9.07;88.50;98875.95;1765285;79;21515;-75
2022/09/27 02:49:21;;;;;;;15.03;11.68;;;;;;;9.06;88.52;98877.78;1738442;79;21059;-75
2022/09/27 02:52:23;;;;;;;13.70;10.72;;;;;;;9.04;88.54;98877.17;1750353;79;21459;-74
2022/09/27 02:55:15;;;;;;;17.10;11.25;;;;;;;9.02;88.53;98869.88;1752270;79;21061;-75
2022/09/27 02:58:06;;;;;;;15.90;11.38;;;;;;;9.01;88.56;98873.05;1755209;79;21160;-76
2022/09/27 03:00:46;;;;;;;15.43;11.50;;;;;;;9.01;88.55;98866.91;1714057;81;21111;-75
2022/09/27 03:03:22;;;;;;;18.42;11.53;;;;;;;9.01;88.55;98873.55;1756648;79;21090;-75
2022/09/27 03:06:08;;;;;;;14.43;11.05;;;;;;;9.01;88.56;98870.89;1742509;80;21032;-75
2022/09/27 03:08:36;;;;;;;16.85;12.58;;;;;;;9.03;88.58;98871.53;1730309;81;21549;-75
2022/09/27 03:11:03;;;;;;;14.55;12.13;;;;;;;9.02;88.57;98870.70;1730498;81;21184;-75
2022/09/27 03:13:29;;;;;;;13.93;10.75;;;;;;;9.04;88.59;98873.19;1760676;79;21443;-75
2022/09/27 03:15:55;;;;;;;13.70;11.70;;;;;;;9.04;88.60;98881.16;1761136;79;21516;-75
2022/09/27 03:18:21;;;;;;;13.25;10.98;;;;;;;9.03;88.63;98870.20;1748947;80;21573;-75
2022/09/27 03:20:47;;;;;;;15.13;11.05;;;;;;;9.01;88.60;98860.25;1755874;79;21550;-75
2022/09/27 03:23:13;;;;;;;16.52;12.37;;;;;;;9.01;88.63;98856.27;1762913;79;21093;-75
2022/09/27 03:25:40;;;;;;;15.58;11.73;;;;;;;9.01;88.65;98849.62;1744706;79;21457;-75
2022/09/27 03:28:06;;;;;;;16.87;11.83;;;;;;;9.01;88.65;98848.29;1756259;79;21500;-75
2022/09/27 03:30:32;;;;;;;13.70;11.57;;;;;;;9.03;88.67;98847.59;1761288;79;21553;-75
2022/09/27 03:32:58;;;;;;;17.87;11.48;;;;;;;9.05;88.68;98849.54;1749425;79;21579;-75
2022/09/27 03:35:24;;;;;;;12.73;10.78;;;;;;;9.07;88.69;98841.38;1761993;79;22154;-75
2022/09/27 03:37:51;;;;;;;14.60;11.08;;;;;;;9.09;88.72;98844.64;1757207;79;21610;-75
2022/09/27 03:40:18;;;;;;;13.55;10.55;;;;;;;9.10;88.74;98833.00;1747934;79;21035;-75
2022/09/27 03:42:44;;;;;;;13.05;10.53;;;;;;;9.11;88.75;98832.81;1758972;79;21520;-75
2022/09/27 03:45:10;;;;;;;15.75;9.90;;;;;;;9.11;88.76;98822.17;1736006;80;21521;-75
2022/09/27 03:47:41;;;;;;;13.85;11.00;;;;;;;9.11;88.74;98813.38;1745411;80;21137;-75
2022/09/27 03:50:09;;;;;;;14.33;10.88;;;;;;;9.10;88.75;98810.39;1747956;80;21537;-75
2022/09/27 03:52:36;;;;;;;13.08;11.03;;;;;;;9.09;88.74;98816.22;1759248;79;21016;-75
2022/09/27 03:55:02;;;;;;;12.63;10.08;;;;;;;9.09;88.77;98808.75;1748264;80;21064;-75
2022/09/27 03:57:29;;;;;;;13.18;9.83;;;;;;;9.09;88.78;98813.56;1747945;80;21293;-75
2022/09/27 03:59:58;;;;;;;14.25;10.48;;;;;;;9.09;88.78;98810.90;1736865;79;21205;-75
2022/09/27 04:02:26;;;;;;;14.70;9.80;;;;;;;9.08;88.78;98797.82;1758389;81;21492;-75
2022/09/27 04:04:52;;;;;;;14.35;9.38;;;;;;;9.08;88.79;98810.58;1747480;80;21048;-75
2022/09/27 04:07:18;;;;;;;12.75;10.10;;;;;;;9.08;88.78;98803.94;1748793;80;20981;-75
2022/09/27 04:09:45;;;;;;;16.23;10.93;;;;;;;9.10;88.78;98801.09;1755726;79;21036;-75
2022/09/27 04:12:12;;;;;;;12.13;10.18;;;;;;;9.11;88.79;98790.77;1748515;80;21139;-76
2022/09/27 04:14:38;;;;;;;28.07;17.55;;;;;;;9.11;88.79;98787.61;1758252;79;21512;-76
2022/09/27 04:17:04;;;;;;;53.70;34.30;;;;;;;9.10;88.79;98781.97;1759121;79;21489;-75
2022/09/27 04:19:30;;;;;;;38.50;25.77;;;;;;;9.11;88.81;98782.28;1752048;79;21544;-75
2022/09/27 04:21:56;;;;;;;31.50;23.70;;;;;;;9.10;88.81;98780.64;1744284;79;21508;-75
2022/09/27 04:24:24;;;;;;;23.18;14.78;;;;;;;9.09;88.81;98775.00;1758915;80;21997;-75
2022/09/27 04:26:50;;;;;;;20.00;12.85;;;;;;;9.09;88.83;98777.66;1758534;79;21000;-75
2022/09/27 04:29:17;;;;;;;16.07;11.18;;;;;;;9.09;88.83;98773.67;1741122;80;21450;-74
2022/09/27 04:31:43;;;;;;;21.40;12.30;;;;;;;9.09;88.85;98763.03;1748373;80;21549;-74
2022/09/27 04:34:10;;;;;;;19.90;13.95;;;;;;;9.09;88.86;98759.55;1739225;80;21042;-75
2022/09/27 04:36:36;;;;;;;18.92;12.88;;;;;;;9.09;88.87;98767.53;1740377;79;21060;-75
2022/09/27 04:39:05;;;;;;;18.60;12.00;;;;;;;9.07;88.84;98758.44;1759005;79;20996;-75
2022/09/27 04:41:31;;;;;;;18.40;11.60;;;;;;;9.10;88.88;98767.34;1755843;79;21046;-75
2022/09/27 04:43:59;;;;;;;18.05;12.80;;;;;;;9.10;88.88;98763.36;1761055;79;20988;-75
2022/09/27 04:46:30;;;;;;;16.73;10.72;;;;;;;9.11;88.89;98758.35;1747330;80;21512;-75
2022/09/27 04:48:55;;;;;;;17.10;11.65;;;;;;;9.13;88.87;98763.45;1751298;80;21509;-75
2022/09/27 04:51:21;;;;;;;15.88;12.28;;;;;;;9.13;88.88;98766.94;1747575;80;21044;-75
2022/09/27 04:53:47;;;;;;;15.85;11.63;;;;;;;9.14;88.89;98757.13;1735430;80;21543;-75
2022/09/27 04:56:14;;;;;;;19.92;12.10;;;;;;;9.15;88.92;98754.25;1737803;80;21492;-75
2022/09/27 04:58:40;;;;;;;18.35;12.85;;;;;;;9.15;88.90;98754.25;1738297;80;20994;-75
2022/09/27 05:01:08;;;;;;;17.90;12.70;;;;;;;9.18;88.94;98753.05;1731910;82;21164;-75
2022/09/27 05:03:34;;;;;;;22.48;14.80;;;;;;;9.18;88.94;98755.20;1750365;80;21005;-75
2022/09/27 05:06:00;;;;;;;21.27;13.08;;;;;;;9.19;88.94;98754.16;1741224;80;21105;-75
2022/09/27 05:08:26;;;;;;;19.00;12.93;;;;;;;9.20;88.92;98749.16;1744790;80;20995;-75
2022/09/27 05:10:53;;;;;;;18.52;13.88;;;;;;;9.23;88.96;98750.59;1726789;80;21092;-75
2022/09/27 05:13:20;;;;;;;16.30;11.85;;;;;;;9.25;88.95;98751.22;1769916;79;21171;-75
2022/09/27 05:15:46;;;;;;;16.23;12.18;;;;;;;9.26;88.98;98749.67;1776153;79;21127;-75
2022/09/27 05:18:12;;;;;;;19.92;12.15;;;;;;;9.28;88.99;98746.31;1742980;80;21068;-75
2022/09/27 05:20:38;;;;;;;16.42;12.68;;;;;;;9.30;88.99;98749.58;1755953;80;21091;-75
2022/09/27 05:23:04;;;;;;;19.12;12.80;;;;;;;9.33;89.03;98751.83;1756961;80;21107;-75
2022/09/27 05:25:31;;;;;;;14.83;11.33;;;;;;;9.35;89.03;98749.81;1756131;80;21100;-75
2022/09/27 05:27:57;;;;;;;17.12;12.53;;;;;;;9.37;89.04;98740.28;1745359;80;20985;-75
2022/09/27 05:30:24;;;;;;;16.97;12.58;;;;;;;9.39;89.05;98738.25;1755454;80;21009;-75
2022/09/27 05:32:51;;;;;;;19.90;13.08;;;;;;;9.40;89.05;98732.70;1756259;80;21496;-75
2022/09/27 05:35:18;;;;;;;17.05;13.00;;;;;;;9.43;89.05;98737.63;1754233;80;21064;-75
2022/09/27 05:37:53;;;;;;;15.45;12.05;;;;;;;9.45;89.06;98740.91;1754226;80;21117;-75
2022/09/27 05:40:23;;;;;;;15.45;12.53;;;;;;;9.48;89.10;98736.52;1741082;80;20968;-75
2022/09/27 05:42:49;;;;;;;21.62;13.85;;;;;;;9.50;89.08;98737.63;1753813;80;21052;-74
2022/09/27 05:45:16;;;;;;;46.48;21.12;;;;;;;9.53;89.10;98736.70;1756035;80;21102;-75
2022/09/27 05:47:42;;;;;;;28.10;16.02;;;;;;;9.56;89.09;98740.00;1756447;80;21075;-75
2022/09/27 05:50:08;;;;;;;22.95;13.40;;;;;;;9.58;89.10;98740.09;1756629;80;21007;-75
2022/09/27 05:52:35;;;;;;;20.95;13.93;;;;;;;9.61;89.09;98741.52;1752422;80;20989;-75
2022/09/27 05:55:01;;;;;;;20.48;13.80;;;;;;;9.63;89.10;98746.14;1755695;80;21019;-75
2022/09/27 05:57:27;;;;;;;18.10;13.35;;;;;;;9.65;89.11;98742.25;1755833;80;21052;-75
2022/09/27 05:59:53;;;;;;;18.27;12.88;;;;;;;9.69;89.12;98742.15;1756658;80;21064;-75
2022/09/27 06:02:19;;;;;;;23.70;13.65;;;;;;;9.74;89.13;98746.87;1755270;80;21131;-75
2022/09/27 06:04:45;;;;;;;17.85;13.10;;;;;;;9.79;89.15;98747.05;1756436;80;21001;-75
2022/09/27 06:07:11;;;;;;;17.65;13.25;;;;;;;9.83;89.13;98742.45;1756736;80;21036;-75
2022/09/27 06:09:37;;;;;;;18.45;13.38;;;;;;;9.89;89.14;98740.29;1756729;80;21487;-75
2022/09/27 06:12:03;;;;;;;62.88;24.75;;;;;;;9.97;89.14;98744.59;1744024;80;21486;-75
2022/09/27 06:14:30;;;;;;;21.35;13.88;;;;;;;10.06;89.14;98739.38;1743025;80;21430;-75
2022/09/27 06:16:56;;;;;;;18.30;12.55;;;;;;;10.14;89.12;98741.83;1745814;80;21011;-76
2022/09/27 06:19:22;;;;;;;18.92;12.43;;;;;;;10.22;89.13;98746.95;1743326;80;21065;-76
2022/09/27 06:21:49;;;;;;;16.90;11.22;;;;;;;10.30;89.12;98744.06;1750529;80;21032;-76
2022/09/27 06:24:15;;;;;;;19.65;12.35;;;;;;;10.38;89.14;98741.16;1747844;80;21553;-76
2022/09/27 06:26:42;;;;;;;14.47;11.60;;;;;;;10.45;89.10;98740.62;1747677;80;21060;-76
2022/09/27 06:29:08;;;;;;;17.35;12.20;;;;;;;10.48;89.08;98744.20;1745952;80;21048;-76
2022/09/27 06:31:34;;;;;;;15.35;11.83;;;;;;;10.51;89.04;98737.14;1752172;80;21581;-76
2022/09/27 06:34:00;;;;;;;15.20;11.75;;;;;;;10.54;88.99;98734.56;1755734;80;21501;-76
2022/09/27 06:36:27;;;;;;;14.70;10.80;;;;;;;10.57;88.99;98736.80;1742071;80;21388;-76
2022/09/27 06:38:53;;;;;;;12.95;10.75;;;;;;;10.61;88.94;98742.53;1753052;80;21158;-76
2022/09/27 06:41:19;;;;;;;15.28;10.53;;;;;;;10.63;88.92;98737.80;1748530;80;21060;-76
2022/09/27 06:43:48;;;;;;;13.65;10.18;;;;;;;10.63;88.88;98735.13;1750034;80;21021;-76
2022/09/27 06:46:14;;;;;;;18.27;10.48;;;;;;;10.65;88.84;98735.75;1747887;80;21044;-76
2022/09/27 06:48:40;;;;;;;16.07;10.85;;;;;;;10.65;88.79;98728.58;1758420;79;21028;-75
2022/09/27 06:51:06;;;;;;;16.67;10.60;;;;;;;10.68;88.74;98730.00;1749442;79;21033;-75
2022/09/27 06:53:32;;;;;;;15.45;11.80;;;;;;;10.70;88.67;98733.25;1747194;80;21052;-75
2022/09/27 06:55:59;;;;;;;16.52;11.43;;;;;;;10.73;88.62;98733.65;1747740;80;20993;-75
2022/09/27 07:01:11;;;;;;;16.10;10.82;;;;;;;10.77;88.53;98728.72;1739082;82;21064;-75
2022/09/27 07:03:40;;;;;;;19.20;11.38;;;;;;;10.78;88.47;98726.36;1733661;80;21910;-75
2022/09/27 07:06:05;;;;;;;16.05;11.45;;;;;;;10.80;88.44;98729.11;1740793;80;21076;-75
2022/09/27 07:08:34;;;;;;;18.48;10.53;;;;;;;10.81;88.39;98727.27;1744641;79;21045;-75
2022/09/27 07:11:07;;;;;;;14.28;10.90;;;;;;;10.84;88.32;98729.50;1758145;79;21048;-75
2022/09/27 07:13:35;;;;;;;14.98;10.18;;;;;;;10.86;88.29;98730.95;1731480;80;21069;-75
2022/09/27 07:16:01;;;;;;;15.68;10.30;;;;;;;10.87;88.22;98735.23;1739432;80;21537;-75
2022/09/27 07:18:27;;;;;;;12.93;8.43;;;;;;;10.91;88.17;98730.29;1758345;81;21517;-75
2022/09/27 07:20:54;;;;;;;13.00;8.60;;;;;;;10.93;88.11;98726.41;1743093;79;21043;-75
2022/09/27 07:23:19;;;;;;;13.32;9.45;;;;;;;10.98;88.05;98725.73;1733793;80;21000;-75
2022/09/27 07:25:46;;;;;;;14.80;8.73;;;;;;;11.01;87.99;98725.34;1758449;79;21008;-75
2022/09/27 07:28:17;;;;;;;13.68;8.95;;;;;;;11.03;87.92;98729.42;1748087;79;21188;-75
2022/09/27 07:30:44;;;;;;;17.82;11.03;;;;;;;11.05;87.84;98729.19;1751015;79;21008;-75
2022/09/27 07:33:10;;;;;;;15.98;10.98;;;;;;;11.10;87.79;98741.89;1741305;79;21026;-75
2022/09/27 07:35:40;;;;;;;13.45;8.85;;;;;;;11.13;87.74;98736.13;1753111;79;21005;-75
2022/09/27 07:38:07;;;;;;;12.82;7.97;;;;;;;11.17;87.65;98736.83;1752138;79;20997;-75
2022/09/27 07:40:35;;;;;;;13.72;8.18;;;;;;;11.20;87.57;98740.40;1706486;82;21043;-75
2022/09/27 07:43:02;;;;;;;11.00;7.22;;;;;;;11.20;87.49;98736.39;1678743;83;21823;-75
2022/09/27 07:45:28;;;;;;;16.57;9.23;;;;;;;11.27;87.43;98734.50;1739739;80;21008;-75
2022/09/27 07:47:55;;;;;;;9.20;6.80;;;;;;;11.30;87.32;98731.91;1748671;80;21509;-75
2022/09/27 07:50:21;;;;;;;11.97;8.78;;;;;;;11.33;87.24;98736.84;1782866;79;21074;-75
2022/09/27 07:52:50;;;;;;;14.93;9.10;;;;;;;11.36;87.15;98739.91;1756699;80;21674;-75
2022/09/27 07:55:17;;;;;;;8.03;6.78;;;;;;;11.40;87.09;98737.59;1755752;80;21521;-75
2022/09/27 07:57:44;;;;;;;13.65;8.18;;;;;;;11.46;87.03;98730.90;1750808;80;21064;-75
2022/09/27 08:00:15;;;;;;;15.72;10.00;;;;;;;11.57;86.99;98735.23;1748155;80;21044;-75
2022/09/27 08:02:42;;;;;;;18.20;9.08;;;;;;;11.71;86.93;98734.13;1756684;80;21008;-75
2022/09/27 08:05:10;;;;;;;7.47;6.67;;;;;;;11.90;86.86;98739.80;1735845;80;21075;-75
2022/09/27 08:07:38;;;;;;;6.62;5.92;;;;;;;12.11;86.81;98726.05;1753438;80;21048;-75
2022/09/27 08:10:06;;;;;;;10.95;6.20;;;;;;;12.36;86.75;98728.16;1749911;80;21489;-75
2022/09/27 08:12:32;;;;;;;8.40;6.25;;;;;;;12.59;86.64;98732.85;1748822;80;21107;-75
2022/09/27 08:15:00;;;;;;;8.03;6.22;;;;;;;12.84;86.54;98738.11;1737922;80;20997;-75
2022/09/27 08:17:30;;;;;;;6.55;5.85;;;;;;;13.06;86.39;98735.22;1756008;80;21151;-75
2022/09/27 08:19:56;;;;;;;9.60;5.62;;;;;;;13.23;86.25;98738.92;1746117;80;21455;-75
2022/09/27 08:22:23;;;;;;;5.70;5.00;;;;;;;13.27;86.05;98737.43;1756741;80;21547;-75
2022/09/27 08:24:49;;;;;;;6.85;4.92;;;;;;;13.43;85.94;98744.83;1747931;80;21021;-76
2022/09/27 08:27:15;;;;;;;5.85;5.12;;;;;;;13.57;85.69;98746.78;1755244;80;21000;-76
2022/09/27 08:29:41;;;;;;;6.42;4.85;;;;;;;13.54;85.41;98742.41;1743204;80;21190;-76
2022/09/27 08:32:09;;;;;;;9.83;5.65;;;;;;;13.54;85.22;98749.11;1753288;80;21094;-76
2022/09/27 08:34:35;;;;;;;9.48;5.92;;;;;;;13.53;85.02;98747.47;1729715;80;20986;-76
2022/09/27 08:37:02;;;;;;;9.28;5.40;;;;;;;13.76;85.00;98752.86;1748454;80;21056;-76
2022/09/27 08:39:28;;;;;;;10.32;5.08;;;;;;;13.80;84.37;98740.64;1756621;80;20992;-75
2022/09/27 08:42:26;;;;;;;12.05;5.35;;;;;;;13.80;84.37;98740.64;1752308;80;21965;-74
2022/09/27 08:45:04;;;;;;;6.78;4.97;;;;;;;13.97;83.97;98749.63;1731386;80;21088;-75
2022/09/27 08:47:39;;;;;;;11.05;4.90;;;;;;;13.97;83.65;98756.33;1737614;80;21076;-73
2022/09/27 08:50:40;;;;;;;8.18;5.20;;;;;;;13.99;83.31;98756.93;1749152;79;21493;-69
2022/09/27 08:53:35;;;;;;;10.82;6.28;;;;;;;13.99;83.31;98756.93;1751301;79;21047;-71
2022/09/27 08:58:50;;;;;;;12.88;7.03;;;;;;;13.91;83.04;98763.96;1631157;85;21029;-70
2022/09/27 09:01:17;;;;;;;12.63;7.33;;;;;;;13.88;82.90;98767.11;1627683;85;21587;-70
2022/09/27 09:03:47;;;;;;;11.28;7.97;;;;;;;13.70;82.61;98750.59;1624908;85;21514;-70
2022/09/27 09:06:41;;;;;;;7.65;6.10;;;;;;;13.78;82.70;98766.86;1653147;85;21895;-70
2022/09/27 09:09:31;;;;;;;15.18;9.73;;;;;;;13.78;82.70;98766.86;1660144;85;21101;-70
2022/09/27 09:15:28;;;;;;;10.50;6.72;;;;;;;13.83;82.58;98769.13;1588285;85;21011;-70
2022/09/27 09:18:12;;;;;;;10.48;6.90;;;;;;;13.91;82.53;98766.64;1665240;85;21083;-70
2022/09/27 09:21:07;;;;;;;7.58;5.60;;;;;;;13.88;82.49;98760.41;1657367;85;21037;-70
2022/09/27 09:23:59;;;;;;;11.33;6.60;;;;;;;13.83;82.43;98756.25;1644836;85;21285;-70
2022/09/27 09:26:33;;;;;;;8.68;5.55;;;;;;;13.74;82.44;98757.64;1670048;84;21034;-70
2022/09/27 09:29:23;;;;;;;13.25;6.80;;;;;;;13.63;82.37;98746.38;1666054;85;21050;-70
2022/09/27 09:32:21;;;;;;;11.57;6.87;;;;;;;13.57;82.38;98759.36;1639730;85;28267;-70
2022/09/27 09:34:52;;;;;;;11.55;7.33;;;;;;;13.33;82.55;98749.93;1664594;84;21079;-70
2022/09/27 09:37:35;;;;;;;8.48;4.97;;;;;;;13.33;82.55;98749.93;1663139;84;21853;-70
2022/09/27 09:40:30;;;;;;;8.08;5.35;;;;;;;13.25;82.37;98743.55;1662759;85;21100;-70
2022/09/27 09:43:10;;;;;;;10.60;7.10;;;;;;;13.08;82.36;98743.86;1666161;85;21070;-70
2022/09/27 09:45:40;;;;;;;15.32;8.88;;;;;;;13.04;82.43;98735.98;1635449;85;21557;-70
2022/09/27 09:48:24;;;;;;;11.93;6.33;;;;;;;13.00;82.45;98734.80;1654497;85;21064;-70
2022/09/27 09:50:53;;;;;;;5.45;4.30;;;;;;;13.01;82.48;98729.75;1607319;85;21976;-70
2022/09/27 09:53:45;;;;;;;8.13;4.95;;;;;;;13.00;82.53;98730.78;1651965;85;21123;-74
2022/09/27 09:56:31;;;;;;;8.83;5.85;;;;;;;12.95;82.54;98726.62;1627726;84;21108;-74
2022/09/27 09:59:21;;;;;;;7.05;5.58;;;;;;;12.89;82.58;98723.52;1684327;83;21048;-75
2022/09/27 10:01:47;;;;;;;7.67;6.08;;;;;;;12.82;82.63;98716.91;1682748;84;21073;-74
2022/09/27 10:04:20;;;;;;;7.65;5.95;;;;;;;12.85;82.76;98719.14;1674397;83;21706;-74
2022/09/27 10:06:47;;;;;;;8.78;5.80;;;;;;;12.93;82.84;98713.48;1681128;84;21082;-74
2022/09/27 10:09:16;;;;;;;8.53;5.80;;;;;;;12.96;82.83;98709.53;1666579;85;21034;-74
2022/09/27 10:11:45;;;;;;;8.83;7.20;;;;;;;13.02;82.91;98704.59;1651716;85;21088;-74
2022/09/27 10:14:14;;;;;;;8.78;5.25;;;;;;;13.14;83.01;98708.19;1658414;84;21030;-74
2022/09/27 10:16:45;;;;;;;8.85;6.03;;;;;;;13.25;83.05;98710.09;1656269;85;21829;-74
2022/09/27 10:19:11;;;;;;;13.43;7.70;;;;;;;13.30;83.08;98710.20;1657856;85;21053;-74
2022/09/27 10:21:41;;;;;;;8.63;4.97;;;;;;;13.43;83.15;98707.34;1661123;84;21487;-74
2022/09/27 10:24:14;;;;;;;10.38;6.58;;;;;;;13.54;83.18;98711.09;1667923;84;21046;-74
2022/09/27 10:26:42;;;;;;;15.20;8.80;;;;;;;13.62;83.19;98705.89;1645931;85;21568;-74
2022/09/27 10:29:32;;;;;;;5.60;4.37;;;;;;;13.73;83.21;98710.45;1672588;84;21083;-74
2022/09/27 10:32:00;;;;;;;5.40;4.55;;;;;;;13.75;83.18;98705.70;1691883;82;21557;-74
2022/09/27 10:34:35;;;;;;;4.53;4.05;;;;;;;13.70;83.20;98704.23;1649063;85;21040;-74
2022/09/27 10:37:10;;;;;;;6.65;4.78;;;;;;;13.73;83.17;98702.42;1650420;85;21936;-74
2022/09/27 10:39:37;;;;;;;5.08;4.28;;;;;;;13.73;83.17;98702.42;1659813;83;21048;-74
2022/09/27 10:42:32;;;;;;;11.28;5.92;;;;;;;13.77;83.12;98699.58;1650887;85;21126;-74
2022/09/27 10:45:20;;;;;;;7.80;5.42;;;;;;;13.57;82.92;98677.15;1634435;85;21073;-74
2022/09/27 10:47:46;;;;;;;9.00;5.22;;;;;;;13.57;82.92;98677.15;1621829;87;21046;-74
2022/09/27 10:50:25;;;;;;;9.00;6.90;;;;;;;13.65;82.93;98689.39;1624168;87;21137;-74
2022/09/27 10:53:13;;;;;;;8.35;5.45;;;;;;;13.69;82.69;98690.53;1680430;83;21554;-75
2022/09/27 10:55:39;;;;;;;8.20;5.60;;;;;;;13.75;82.81;98684.27;1656030;84;21168;-74
2022/09/27 10:58:06;;;;;;;11.03;6.33;;;;;;;13.75;82.81;98684.27;1664177;84;21130;-74
2022/09/27 11:00:34;;;;;;;8.10;5.95;;;;;;;13.72;82.87;98680.72;1676849;84;21085;-74
2022/09/27 11:03:04;;;;;;;8.15;5.62;;;;;;;13.62;82.76;98681.79;1713197;83;21117;-74
2022/09/27 11:05:37;;;;;;;11.73;7.53;;;;;;;13.58;82.74;98679.31;1679385;84;21111;-74
2022/09/27 11:08:23;;;;;;;7.72;5.97;;;;;;;13.59;82.69;98675.56;1680734;83;21189;-75
2022/09/27 11:11:08;;;;;;;10.65;7.62;;;;;;;13.60;82.62;98672.66;1712623;83;21042;-74
2022/09/27 11:13:34;;;;;;;7.12;6.20;;;;;;;13.56;82.51;98679.52;1704337;83;21474;-74
2022/09/27 11:16:29;;;;;;;8.48;4.20;;;;;;;13.60;82.47;98675.86;1706601;83;21053;-75
2022/09/27 11:19:17;;;;;;;7.92;5.58;;;;;;;13.57;82.37;98674.98;1707960;83;21067;-74
2022/09/27 11:22:01;;;;;;;9.40;5.50;;;;;;;13.55;82.31;98673.86;1710442;83;21038;-74
2022/09/27 11:24:42;;;;;;;9.60;6.10;;;;;;;13.64;82.24;98671.67;1708695;83;21066;-74
2022/09/27 11:27:44;;;;;;;7.85;6.72;;;;;;;13.68;82.14;98672.84;1716470;83;21691;-74
2022/09/27 11:30:19;;;;;;;7.83;5.80;;;;;;;13.75;82.06;98660.16;1710190;83;21066;-74
2022/09/27 11:33:17;;;;;;;8.43;5.15;;;;;;;13.81;81.98;98665.91;1714063;83;21070;-73
2022/09/27 11:36:00;;;;;;;10.95;5.78;;;;;;;13.87;81.88;98671.67;1669016;83;21500;-74
2022/09/27 11:38:48;;;;;;;9.45;6.50;;;;;;;13.78;81.74;98659.17;1669196;83;21076;-74
2022/09/27 11:41:34;;;;;;;7.47;5.28;;;;;;;13.69;81.65;98665.91;1672625;84;21627;-74
2022/09/27 11:44:38;;;;;;;10.78;7.33;;;;;;;13.61;81.50;98658.75;1712976;82;21081;-74
2022/09/27 11:47:19;;;;;;;8.15;6.62;;;;;;;13.58;81.47;98665.91;1716221;83;22042;-75
2022/09/27 11:50:27;;;;;;;10.98;6.75;;;;;;;13.54;81.38;98658.86;1700668;83;21176;-74
2022/09/27 11:53:14;;;;;;;6.87;4.78;;;;;;;13.62;81.36;98657.68;1679970;83;21107;-75
2022/09/27 11:56:16;;;;;;;12.73;6.90;;;;;;;13.56;81.23;98647.91;1707241;83;21010;-74
2022/09/27 11:59:05;;;;;;;11.78;6.30;;;;;;;13.49;81.21;98654.19;1678266;83;21065;-74
2022/09/27 12:02:04;;;;;;;6.58;5.15;;;;;;;13.47;81.15;98653.59;1666257;84;21057;-74